Time;durP1;ratioP1;P1;durP2;ratioP2;P2;SDS_P1;SDS_P2;PMS_P1;PMS_P2;Temp;Humidity;BMP_temperature;BMP_pressure;BME280_temperature;BME280_humidity;BME280_pressure;Samples;Min_cycle;Max_cycle;Signal;HPM_P1;HPM_P2
2023/04/29 00:02:06;;;;;;;;;6.33;6.33;;;;;-147.47;100.00;64613.53;5019689;28;45843;-86
2023/04/29 00:04:37;;;;;;;;;7.67;6.67;;;;;-147.47;100.00;64613.53;5016838;28;45475;-86
2023/04/29 00:07:06;;;;;;;;;5.00;3.67;;;;;-147.47;100.00;64613.53;5016543;28;45842;-84
2023/04/29 00:09:38;;;;;;;;;5.00;5.00;;;;;-147.47;100.00;64613.53;5038643;28;45372;-85
2023/04/29 00:12:32;;;;;;;;;3.67;3.67;;;;;-147.47;100.00;64613.53;5018313;28;45870;-83
2023/04/29 00:15:08;;;;;;;;;5.67;5.67;;;;;-147.47;100.00;64613.53;5010611;28;45516;-85
2023/04/29 00:17:38;;;;;;;;;5.00;5.00;;;;;-147.47;100.00;64613.53;5015004;28;45784;-84
2023/04/29 00:20:33;;;;;;;;;10.00;7.00;;;;;-147.47;100.00;64613.53;5013295;28;45558;-83
2023/04/29 00:23:39;;;;;;;;;;;;;;;;;;;;;
2023/04/29 00:30:00;;;;;;;;;5.33;3.67;;;;;-147.47;100.00;64613.53;4930996;28;46010;-83
2023/04/29 00:32:40;;;;;;;;;8.67;6.33;;;;;-147.47;100.00;64613.53;4916764;28;46120;-84
2023/04/29 00:35:18;;;;;;;;;6.67;6.67;;;;;-147.47;100.00;64613.53;4935884;28;45499;-83
2023/04/29 00:37:44;;;;;;;;;7.00;5.33;;;;;-147.47;100.00;64613.53;4952325;28;45855;-83
2023/04/29 00:40:19;;;;;;;;;4.67;4.00;;;;;-147.47;100.00;64613.53;4979024;28;45775;-84
2023/04/29 00:43:17;;;;;;;;;6.00;5.67;;;;;-147.47;100.00;64613.53;5004848;28;45443;-84
2023/04/29 00:46:01;;;;;;;;;7.00;6.67;;;;;-147.47;100.00;64613.53;5002799;28;45663;-86
2023/04/29 00:48:26;;;;;;;;;7.67;6.33;;;;;-147.47;100.00;64613.53;5009065;28;45852;-82
2023/04/29 00:51:05;;;;;;;;;9.00;7.67;;;;;-147.47;100.00;64613.53;5015584;28;45466;-84
2023/04/29 00:53:50;;;;;;;;;7.33;5.67;;;;;-147.47;100.00;64613.53;5009981;28;45883;-84
2023/04/29 00:56:16;;;;;;;;;8.67;6.33;;;;;-147.47;100.00;64613.53;5015774;28;45741;-83
2023/04/29 00:58:48;;;;;;;;;7.33;6.33;;;;;-147.47;100.00;64613.53;5015926;28;46141;-83
2023/04/29 01:01:20;;;;;;;;;9.00;9.00;;;;;-147.47;100.00;64613.53;5036539;28;47751;-81
2023/04/29 01:03:47;;;;;;;;;7.67;5.67;;;;;-147.47;100.00;64613.53;5020925;28;45533;-84
2023/04/29 01:06:29;;;;;;;;;4.67;4.67;;;;;-147.47;100.00;64613.53;5030273;28;45920;-83
2023/04/29 01:09:17;;;;;;;;;10.00;8.33;;;;;-147.47;100.00;64613.53;5004374;28;45787;-84
2023/04/29 01:12:07;;;;;;;;;7.33;7.33;;;;;-147.47;100.00;64613.53;5016271;28;45875;-84
2023/04/29 01:14:42;;;;;;;;;6.33;6.33;;;;;-147.47;100.00;64613.53;5032995;28;45438;-84
2023/04/29 01:17:20;;;;;;;;;9.33;8.33;;;;;-147.47;100.00;64613.53;5019346;28;44765;-84
2023/04/29 01:19:51;;;;;;;;;12.00;9.33;;;;;-147.47;100.00;64613.53;5032929;28;45609;-84
2023/04/29 01:22:20;;;;;;;;;9.00;8.67;;;;;-147.47;100.00;64613.53;5001373;28;46313;-85
2023/04/29 01:24:50;;;;;;;;;10.00;7.33;;;;;-147.47;100.00;64613.53;5011105;28;45510;-82
2023/04/29 01:27:52;;;;;;;;;7.67;7.67;;;;;-147.47;100.00;64613.53;5019202;28;45336;-83
2023/04/29 01:30:55;;;;;;;;;7.33;7.33;;;;;-147.47;100.00;64613.53;5020473;28;45700;-83
2023/04/29 01:37:13;;;;;;;;;7.67;7.33;;;;;-147.47;100.00;64613.53;4977009;28;46016;-84
2023/04/29 01:39:51;;;;;;;;;10.33;8.33;;;;;-147.47;100.00;64613.53;5056346;28;45830;-83
2023/04/29 01:42:24;;;;;;;;;9.67;8.67;;;;;-147.47;100.00;64613.53;5044666;28;45468;-83
2023/04/29 01:48:28;;;;;;;;;14.33;12.00;;;;;-147.47;100.00;64613.53;5036680;28;45819;-84
2023/04/29 01:51:06;;;;;;;;;10.67;10.67;;;;;-147.47;100.00;64613.53;5024784;28;45454;-83
2023/04/29 01:53:39;;;;;;;;;14.33;12.00;;;;;-147.47;100.00;64613.53;5047653;28;45573;-84
2023/04/29 01:56:30;;;;;;;;;9.33;8.67;;;;;-147.47;100.00;64613.53;5035477;28;47412;-82
2023/04/29 01:59:13;;;;;;;;;6.67;6.67;;;;;-147.47;100.00;64613.53;5050643;28;45516;-83
2023/04/29 02:01:48;;;;;;;;;9.67;9.67;;;;;-147.47;100.00;64613.53;5043863;28;45411;-83
2023/04/29 02:04:32;;;;;;;;;8.33;8.00;;;;;-147.47;100.00;64613.53;5049271;28;45732;-82
2023/04/29 02:07:43;;;;;;;;;9.33;9.00;;;;;-147.47;100.00;64613.53;5044264;28;45372;-84
2023/04/29 02:10:22;;;;;;;;;9.33;9.33;;;;;-147.47;100.00;64613.53;5045463;28;44831;-83
2023/04/29 02:12:57;;;;;;;;;9.00;9.00;;;;;-147.47;100.00;64613.53;5057844;28;45380;-84
2023/04/29 02:15:42;;;;;;;;;11.00;10.33;;;;;-147.47;100.00;64613.53;5059618;28;45344;-84
2023/04/29 02:18:26;;;;;;;;;11.67;9.00;;;;;-147.47;100.00;64613.53;5037909;28;45334;-83
2023/04/29 02:21:24;;;;;;;;;12.67;11.67;;;;;-147.47;100.00;64613.53;5052966;28;45558;-82
2023/04/29 02:23:55;;;;;;;;;12.67;10.67;;;;;-147.47;100.00;64613.53;5051482;28;45479;-83
2023/04/29 02:26:22;;;;;;;;;11.33;10.67;;;;;-147.47;100.00;64613.53;5058276;28;45708;-83
2023/04/29 02:28:51;;;;;;;;;12.67;10.33;;;;;-147.47;100.00;64613.53;5056511;28;47051;-83
2023/04/29 02:31:17;;;;;;;;;13.67;12.00;;;;;-147.47;100.00;64613.53;5018565;28;45565;-82
2023/04/29 02:33:46;;;;;;;;;13.33;12.00;;;;;-147.47;100.00;64613.53;5009005;28;45422;-83
2023/04/29 02:36:12;;;;;;;;;13.67;12.67;;;;;-147.47;100.00;64613.53;5004954;28;45357;-82
2023/04/29 02:38:37;;;;;;;;;12.00;11.67;;;;;-147.47;100.00;64613.53;4999013;28;46897;-83
2023/04/29 02:41:03;;;;;;;;;10.00;9.67;;;;;-147.47;100.00;64613.53;5010478;28;45674;-82
2023/04/29 02:43:32;;;;;;;;;12.00;10.00;;;;;-147.47;100.00;64613.53;5026469;28;45697;-82
2023/04/29 02:45:58;;;;;;;;;13.00;13.00;;;;;-147.47;100.00;64613.53;5060243;28;46226;-83
2023/04/29 02:48:24;;;;;;;;;11.00;11.00;;;;;-147.47;100.00;64613.53;5033218;28;45576;-84
2023/04/29 02:50:51;;;;;;;;;11.33;10.33;;;;;-147.47;100.00;64613.53;5024957;28;45324;-83
2023/04/29 02:53:20;;;;;;;;;10.67;10.33;;;;;-147.47;100.00;64613.53;5025034;28;45493;-82
2023/04/29 02:55:47;;;;;;;;;12.33;11.33;;;;;-147.47;100.00;64613.53;5014751;28;45574;-82
2023/04/29 02:58:12;;;;;;;;;14.33;12.00;;;;;-147.47;100.00;64613.53;5024763;28;45543;-82
2023/04/29 03:00:52;;;;;;;;;11.00;10.33;;;;;-147.47;100.00;64613.53;5005093;28;45474;-83
2023/04/29 03:03:24;;;;;;;;;12.00;10.67;;;;;-147.47;100.00;64613.53;5038317;28;45485;-84
2023/04/29 03:06:00;;;;;;;;;15.00;14.00;;;;;-147.47;100.00;64613.53;5017148;28;45704;-85
2023/04/29 03:08:32;;;;;;;;;12.67;10.00;;;;;-147.47;100.00;64613.53;5018833;28;47904;-83
2023/04/29 03:11:09;;;;;;;;;10.33;9.33;;;;;-147.47;100.00;64613.53;5024368;28;45438;-85
2023/04/29 03:15:17;;;;;;;;;;;;;;;;;;;;;
2023/04/29 03:18:07;;;;;;;;;12.00;9.67;;;;;-147.47;100.00;64613.53;5027267;28;44923;-86
2023/04/29 03:21:40;;;;;;;;;11.33;10.33;;;;;-147.47;100.00;64613.53;5024065;28;45873;-86
2023/04/29 03:24:50;;;;;;;;;11.67;11.00;;;;;-147.47;100.00;64613.53;4993764;28;45660;-86
2023/04/29 03:27:32;;;;;;;;;11.33;9.67;;;;;-147.47;100.00;64613.53;5042531;28;44841;-84
2023/04/29 03:30:04;;;;;;;;;10.33;10.00;;;;;-147.47;100.00;64613.53;5044879;28;46000;-83
2023/04/29 03:32:34;;;;;;;;;13.00;12.67;;;;;-147.47;100.00;64613.53;5070670;28;45451;-83
2023/04/29 03:35:00;;;;;;;;;10.67;9.33;;;;;-147.47;100.00;64613.53;5048866;28;45360;-83
2023/04/29 03:37:32;;;;;;;;;14.33;11.67;;;;;-147.47;100.00;64613.53;5061753;28;45380;-85
2023/04/29 03:39:57;;;;;;;;;9.00;9.00;;;;;-147.47;100.00;64613.53;5060814;28;44836;-81
2023/04/29 03:42:23;;;;;;;;;16.00;13.00;;;;;-147.47;100.00;64613.53;5044026;28;47066;-81
2023/04/29 03:44:48;;;;;;;;;12.33;11.00;;;;;-147.47;100.00;64613.53;5057368;28;46285;-82
2023/04/29 03:47:56;;;;;;;;;11.67;11.67;;;;;-147.47;100.00;64613.53;5063183;28;45992;-82
2023/04/29 03:50:28;;;;;;;;;11.00;11.00;;;;;-147.47;100.00;64613.53;5014934;28;45265;-83
2023/04/29 03:52:54;;;;;;;;;7.67;6.67;;;;;-147.47;100.00;64613.53;5057591;28;45565;-84
2023/04/29 03:55:20;;;;;;;;;11.00;11.00;;;;;-147.47;100.00;64613.53;5066182;28;45408;-82
2023/04/29 03:58:17;;;;;;;;;15.00;13.00;;;;;-147.47;100.00;64613.53;5070382;28;44890;-84
2023/04/29 04:05:00;;;;;;;;;;;;;;;;;;;;;
2023/04/29 04:11:40;;;;;;;;;10.00;8.33;;;;;-147.47;100.00;64613.53;4997788;28;45568;-81
2023/04/29 04:14:20;;;;;;;;;15.00;14.00;;;;;-147.47;100.00;64613.53;5003892;28;45590;-81
2023/04/29 04:17:00;;;;;;;;;17.33;13.33;;;;;-147.47;100.00;64613.53;4997540;28;46874;-81
2023/04/29 04:19:40;;;;;;;;;13.33;10.67;;;;;-147.47;100.00;64613.53;5065626;28;45316;-82
2023/04/29 04:25:30;;;;;;;;;15.00;12.33;;;;;-147.47;100.00;64613.53;5012863;28;45095;-83
2023/04/29 04:28:23;;;;;;;;;12.67;11.33;;;;;-147.47;100.00;64613.53;5057857;28;45561;-82
2023/04/29 04:31:04;;;;;;;;;17.67;16.00;;;;;-147.47;100.00;64613.53;5074661;28;44840;-84
2023/04/29 04:34:06;;;;;;;;;;;;;;;;;;;;;
2023/04/29 04:37:06;;;;;;;;;15.00;11.67;;;;;-147.47;100.00;64613.53;5052059;28;73115;-83
2023/04/29 04:44:01;;;;;;;;;20.33;16.33;;;;;-147.47;100.00;64613.53;4996505;28;45716;-82
2023/04/29 04:46:50;;;;;;;;;10.67;10.67;;;;;-147.47;100.00;64613.53;5047618;28;45675;-83
2023/04/29 04:49:34;;;;;;;;;17.67;14.67;;;;;-147.47;100.00;64613.53;5035377;28;45883;-83
2023/04/29 04:56:13;;;;;;;;;14.67;11.00;;;;;-147.47;100.00;64613.53;5067005;28;45351;-84
2023/04/29 04:59:40;;;;;;;;;;;;;;;;;;;;;
2023/04/29 05:10:25;;;;;;;;;;;;;;;;;;;;;
2023/04/29 05:14:05;;;;;;;;;;;;;;;;;;;;;
2023/04/29 05:17:36;;;;;;;;;;;;;;;;;;;;;
2023/04/29 05:21:04;;;;;;;;;13.00;13.00;;;;;-147.47;100.00;64613.53;4866985;29;74822;-84
2023/04/29 05:27:24;;;;;;;;;17.33;16.00;;;;;-147.47;100.00;64613.53;4863334;29;45894;-83
2023/04/29 05:37:33;;;;;;;;;13.67;13.33;;;;;-147.47;100.00;64613.53;4744999;29;45547;-82
2023/04/29 05:40:39;;;;;;;;;;;;;;;;;;;;;
2023/04/29 05:43:19;;;;;;;;;18.00;15.00;;;;;-147.47;100.00;64613.53;4829571;29;74160;-81
2023/04/29 05:47:00;;;;;;;;;17.33;13.67;;;;;-147.47;100.00;64613.53;4899440;28;45931;-83
2023/04/29 05:49:26;;;;;;;;;15.67;14.00;;;;;-147.47;100.00;64613.53;4926027;28;45542;-81
2023/04/29 05:51:52;;;;;;;;;13.67;11.00;;;;;-147.47;100.00;64613.53;4991119;28;45992;-81
2023/04/29 05:54:17;;;;;;;;;10.00;9.67;;;;;-147.47;100.00;64613.53;5026561;28;45603;-80
2023/04/29 05:56:43;;;;;;;;;12.33;11.67;;;;;-147.47;100.00;64613.53;5035886;28;47633;-81
2023/04/29 05:59:08;;;;;;;;;13.00;11.33;;;;;-147.47;100.00;64613.53;5034619;28;45879;-83
2023/04/29 06:01:34;;;;;;;;;12.33;9.33;;;;;-147.47;100.00;64613.53;5030850;28;45842;-83
2023/04/29 06:04:10;;;;;;;;;13.67;12.33;;;;;-147.47;100.00;64613.53;5029008;28;45597;-82
2023/04/29 06:06:36;;;;;;;;;14.33;13.33;;;;;-147.47;100.00;64613.53;5034633;28;45702;-81
2023/04/29 06:09:01;;;;;;;;;15.00;13.00;;;;;-147.47;100.00;64613.53;5036743;28;45464;-84
2023/04/29 06:11:27;;;;;;;;;15.00;15.00;;;;;-147.47;100.00;64613.53;5033191;28;45443;-80
2023/04/29 06:13:52;;;;;;;;;17.00;14.00;;;;;-147.47;100.00;64613.53;5023450;28;45414;-81
2023/04/29 06:16:17;;;;;;;;;16.33;14.67;;;;;-147.47;100.00;64613.53;5038558;28;45290;-83
2023/04/29 06:18:43;;;;;;;;;16.33;12.67;;;;;-147.47;100.00;64613.53;5035956;28;45781;-81
2023/04/29 06:21:08;;;;;;;;;14.67;13.33;;;;;-147.47;100.00;64613.53;5036514;28;45407;-81
2023/04/29 06:23:34;;;;;;;;;23.33;19.67;;;;;-147.47;100.00;64613.53;5043100;28;45907;-82
2023/04/29 06:26:00;;;;;;;;;20.00;13.00;;;;;-147.47;100.00;64613.53;5036341;28;45852;-79
2023/04/29 06:28:25;;;;;;;;;20.00;14.67;;;;;-147.47;100.00;64613.53;5042822;28;45539;-83
2023/04/29 06:30:51;;;;;;;;;17.00;13.33;;;;;-147.47;100.00;64613.53;5053537;28;45380;-82
2023/04/29 06:33:16;;;;;;;;;18.67;14.67;;;;;-147.47;100.00;64613.53;5026863;28;45449;-84
2023/04/29 06:35:42;;;;;;;;;17.67;13.67;;;;;-147.47;100.00;64613.53;5008322;28;46210;-82
2023/04/29 06:38:08;;;;;;;;;22.00;17.67;;;;;-147.47;100.00;64613.53;5028975;28;45550;-83
2023/04/29 06:40:34;;;;;;;;;33.00;21.00;;;;;-147.47;100.00;64613.53;5036347;28;45516;-83
2023/04/29 06:43:01;;;;;;;;;22.67;20.00;;;;;-147.47;100.00;64613.53;5017741;28;45701;-82
2023/04/29 06:45:27;;;;;;;;;28.67;22.67;;;;;-147.47;100.00;64613.53;5036573;28;46041;-82
2023/04/29 06:47:53;;;;;;;;;25.67;23.67;;;;;-147.47;100.00;64613.53;5021539;28;45700;-83
2023/04/29 06:50:19;;;;;;;;;26.00;17.33;;;;;-147.47;100.00;64613.53;5015125;28;45267;-81
2023/04/29 06:52:45;;;;;;;;;30.67;25.00;;;;;-147.47;100.00;64613.53;5048429;28;45857;-81
2023/04/29 06:55:11;;;;;;;;;27.67;24.67;;;;;-147.47;100.00;64613.53;5021732;28;45844;-82
2023/04/29 06:57:37;;;;;;;;;25.00;24.33;;;;;-147.47;100.00;64613.53;5013150;28;45507;-82
2023/04/29 07:00:03;;;;;;;;;30.33;28.33;;;;;-147.47;100.00;64613.53;5019605;28;45385;-83
2023/04/29 07:02:29;;;;;;;;;33.67;26.33;;;;;-147.47;100.00;64613.53;5008182;28;45600;-81
2023/04/29 07:04:54;;;;;;;;;35.67;33.00;;;;;-147.47;100.00;64613.53;5021836;28;47237;-82
2023/04/29 07:07:20;;;;;;;;;34.67;28.00;;;;;-147.47;100.00;64613.53;5019179;28;45435;-85
2023/04/29 07:09:46;;;;;;;;;41.67;31.33;;;;;-147.47;100.00;64613.53;5011271;28;45532;-82
2023/04/29 07:12:13;;;;;;;;;36.33;29.33;;;;;-147.47;100.00;64613.53;5019888;28;45786;-81
2023/04/29 07:14:46;;;;;;;;;30.67;27.00;;;;;-147.47;100.00;64613.53;5015264;28;45654;-80
2023/04/29 07:17:12;;;;;;;;;36.33;29.33;;;;;-147.47;100.00;64613.53;5012140;28;45873;-81
2023/04/29 07:19:40;;;;;;;;;34.00;31.33;;;;;-147.47;100.00;64613.53;5013849;28;45616;-82
2023/04/29 07:22:06;;;;;;;;;45.00;32.67;;;;;-147.47;100.00;64613.53;5013827;28;46092;-80
2023/04/29 07:24:32;;;;;;;;;38.00;31.67;;;;;-147.47;100.00;64613.53;5014872;28;45955;-83
2023/04/29 07:26:58;;;;;;;;;32.67;28.00;;;;;-147.47;100.00;64613.53;5012607;28;46042;-83
2023/04/29 07:29:32;;;;;;;;;37.67;29.67;;;;;-147.47;100.00;64613.53;5011826;28;45800;-82
2023/04/29 07:31:57;;;;;;;;;40.33;32.33;;;;;-147.47;100.00;64613.53;5015008;28;45489;-82
2023/04/29 07:34:24;;;;;;;;;41.67;33.67;;;;;-147.47;100.00;64613.53;5020138;28;47069;-83
2023/04/29 07:36:49;;;;;;;;;38.00;26.67;;;;;-147.47;100.00;64613.53;5013227;28;45932;-81
2023/04/29 07:39:19;;;;;;;;;34.67;28.67;;;;;-147.47;100.00;64613.53;5003916;28;45499;-82
2023/04/29 07:41:50;;;;;;;;;40.67;35.67;;;;;-147.47;100.00;64613.53;5012215;28;45971;-84
2023/04/29 07:44:17;;;;;;;;;35.00;28.33;;;;;-147.47;100.00;64613.53;5005413;28;45549;-81
2023/04/29 07:46:46;;;;;;;;;34.33;30.33;;;;;-147.47;100.00;64613.53;5011356;28;45489;-82
2023/04/29 07:49:13;;;;;;;;;39.00;32.33;;;;;-147.47;100.00;64613.53;5014490;28;45829;-83
2023/04/29 07:51:42;;;;;;;;;35.33;28.67;;;;;-147.47;100.00;64613.53;5017666;28;45609;-84
2023/04/29 07:54:08;;;;;;;;;35.00;26.33;;;;;-147.47;100.00;64613.53;5019241;28;45415;-79
2023/04/29 07:56:34;;;;;;;;;34.00;29.33;;;;;-147.47;100.00;64613.53;5013160;28;45476;-81
2023/04/29 07:59:00;;;;;;;;;32.33;24.00;;;;;-147.47;100.00;64613.53;5014936;28;45552;-82
2023/04/29 08:01:39;;;;;;;;;41.67;35.33;;;;;-147.47;100.00;64613.53;5035041;28;45989;-84
2023/04/29 08:04:06;;;;;;;;;27.33;23.00;;;;;-147.47;100.00;64613.53;5025080;28;45568;-83
2023/04/29 08:06:32;;;;;;;;;42.67;32.00;;;;;-147.47;100.00;64613.53;5004259;28;45846;-83
2023/04/29 08:08:58;;;;;;;;;36.33;31.00;;;;;-147.47;100.00;64613.53;5025054;28;45846;-84
2023/04/29 08:11:25;;;;;;;;;46.67;35.67;;;;;-147.47;100.00;64613.53;5030611;28;45345;-82
2023/04/29 08:13:50;;;;;;;;;31.67;31.00;;;;;-147.47;100.00;64613.53;5030635;28;45521;-81
2023/04/29 08:16:17;;;;;;;;;38.33;31.67;;;;;-147.47;100.00;64613.53;5021290;28;45518;-83
2023/04/29 08:18:42;;;;;;;;;30.33;27.00;;;;;-147.47;100.00;64613.53;5014061;28;45599;-84
2023/04/29 08:21:10;;;;;;;;;21.33;21.33;;;;;-147.47;100.00;64613.53;5012174;28;45649;-82
2023/04/29 08:23:36;;;;;;;;;39.00;35.67;;;;;-147.47;100.00;64613.53;5014610;28;46851;-83
2023/04/29 08:26:02;;;;;;;;;34.33;27.67;;;;;-147.47;100.00;64613.53;5005032;28;45861;-84
2023/04/29 08:28:31;;;;;;;;;36.67;29.33;;;;;-147.47;100.00;64613.53;5012469;28;45483;-83
2023/04/29 08:30:56;;;;;;;;;36.33;30.67;;;;;-147.47;100.00;64613.53;5016292;28;45639;-83
2023/04/29 08:33:24;;;;;;;;;42.00;35.67;;;;;-147.47;100.00;64613.53;5044462;28;45709;-82
2023/04/29 08:35:58;;;;;;;;;45.00;35.33;;;;;-147.47;100.00;64613.53;5070489;28;45758;-83
2023/04/29 08:38:24;;;;;;;;;40.67;33.00;;;;;-147.47;100.00;64613.53;5055095;28;45933;-81
2023/04/29 08:40:53;;;;;;;;;34.00;29.67;;;;;-147.47;100.00;64613.53;5059584;28;45481;-84
2023/04/29 08:43:20;;;;;;;;;40.33;31.67;;;;;-147.47;100.00;64613.53;5048322;28;47907;-84
2023/04/29 08:45:48;;;;;;;;;37.33;32.00;;;;;-147.47;100.00;64613.53;5041591;28;45655;-83
2023/04/29 08:48:15;;;;;;;;;39.00;32.33;;;;;-147.47;100.00;64613.53;5051660;28;45674;-84
2023/04/29 08:50:42;;;;;;;;;33.00;26.33;;;;;-147.47;100.00;64613.53;5060323;28;45873;-81
2023/04/29 08:53:09;;;;;;;;;43.33;30.67;;;;;-147.47;100.00;64613.53;5057843;28;47563;-83
2023/04/29 08:55:41;;;;;;;;;46.33;34.67;;;;;-147.47;100.00;64613.53;5041217;28;45367;-81
2023/04/29 08:58:08;;;;;;;;;29.67;28.33;;;;;-147.47;100.00;64613.53;5058021;28;45537;-81
2023/04/29 09:00:36;;;;;;;;;36.33;31.00;;;;;-147.47;100.00;64613.53;5058325;28;45489;-84
2023/04/29 09:03:25;;;;;;;;;34.00;29.00;;;;;-147.47;100.00;64613.53;5049132;28;46185;-82
2023/04/29 09:05:59;;;;;;;;;45.00;35.67;;;;;-147.47;100.00;64613.53;5052896;28;46239;-83
2023/04/29 09:08:25;;;;;;;;;38.00;32.67;;;;;-147.47;100.00;64613.53;5050389;28;45437;-81
2023/04/29 09:10:53;;;;;;;;;35.33;31.33;;;;;-147.47;100.00;64613.53;5045052;28;45847;-82
2023/04/29 09:13:31;;;;;;;;;34.67;29.00;;;;;-147.47;100.00;64613.53;5049164;28;45552;-80
2023/04/29 09:15:57;;;;;;;;;45.33;32.67;;;;;-147.47;100.00;64613.53;5038553;28;45405;-80
2023/04/29 09:18:48;;;;;;;;;35.67;32.33;;;;;-147.47;100.00;64613.53;5033003;28;45863;-81
2023/04/29 09:21:17;;;;;;;;;38.33;33.00;;;;;-147.47;100.00;64613.53;5047306;28;45950;-80
2023/04/29 09:23:44;;;;;;;;;28.00;27.00;;;;;-147.47;100.00;64613.53;5064883;28;45829;-80
2023/04/29 09:26:10;;;;;;;;;35.67;33.33;;;;;-147.47;100.00;64613.53;5062923;28;45437;-81
2023/04/29 09:28:35;;;;;;;;;33.33;27.00;;;;;-147.47;100.00;64613.53;5047974;28;46056;-81
2023/04/29 09:31:05;;;;;;;;;36.33;27.67;;;;;-147.47;100.00;64613.53;5056807;28;45785;-83
2023/04/29 09:33:31;;;;;;;;;36.33;29.67;;;;;-147.47;100.00;64613.53;5035531;28;46742;-82
2023/04/29 09:35:57;;;;;;;;;30.33;27.00;;;;;-147.47;100.00;64613.53;5047234;28;45392;-83
2023/04/29 09:38:22;;;;;;;;;39.33;30.00;;;;;-147.47;100.00;64613.53;5048188;28;46599;-82
2023/04/29 09:40:50;;;;;;;;;33.00;25.67;;;;;-147.47;100.00;64613.53;5036510;28;45867;-81
2023/04/29 09:43:17;;;;;;;;;34.67;31.00;;;;;-147.47;100.00;64613.53;5040551;28;47129;-81
2023/04/29 09:45:46;;;;;;;;;35.67;32.00;;;;;-147.47;100.00;64613.53;5037048;28;45411;-81
2023/04/29 09:48:12;;;;;;;;;44.00;33.67;;;;;-147.47;100.00;64613.53;5057553;28;45625;-80
2023/04/29 09:50:38;;;;;;;;;35.33;31.33;;;;;-147.47;100.00;64613.53;5049362;28;45882;-81
2023/04/29 09:53:07;;;;;;;;;38.33;32.67;;;;;-147.47;100.00;64613.53;5051069;28;45444;-84
2023/04/29 09:55:34;;;;;;;;;34.67;27.67;;;;;-147.47;100.00;64613.53;5047296;28;45396;-81
2023/04/29 09:58:03;;;;;;;;;34.67;29.00;;;;;-147.47;100.00;64613.53;5056849;28;45348;-82
2023/04/29 10:00:33;;;;;;;;;33.33;26.00;;;;;-147.47;100.00;64613.53;5049828;28;46070;-82
2023/04/29 10:03:02;;;;;;;;;34.33;27.33;;;;;-147.47;100.00;64613.53;5049291;28;45543;-82
2023/04/29 10:05:29;;;;;;;;;35.00;30.33;;;;;-147.47;100.00;64613.53;5045164;28;45809;-82
2023/04/29 10:07:57;;;;;;;;;29.33;26.00;;;;;-147.47;100.00;64613.53;5055263;28;45513;-84
2023/04/29 10:10:24;;;;;;;;;38.67;26.00;;;;;-147.47;100.00;64613.53;5056903;28;45347;-83
2023/04/29 10:12:52;;;;;;;;;30.33;24.33;;;;;-147.47;100.00;64613.53;5049314;28;45640;-84
2023/04/29 10:15:49;;;;;;;;;39.67;29.33;;;;;-147.47;100.00;64613.53;5050578;28;45843;-85
2023/04/29 10:18:20;;;;;;;;;30.67;27.67;;;;;-147.47;100.00;64613.53;5032090;28;45488;-83
2023/04/29 10:20:47;;;;;;;;;22.00;20.67;;;;;-147.47;100.00;64613.53;5038570;28;45324;-84
2023/04/29 10:23:14;;;;;;;;;28.67;24.67;;;;;-147.47;100.00;64613.53;5054013;28;46772;-86
2023/04/29 10:25:43;;;;;;;;;26.33;20.00;;;;;-147.47;100.00;64613.53;5057533;28;45602;-84
2023/04/29 10:28:15;;;;;;;;;32.00;28.00;;;;;-147.47;100.00;64613.53;5063555;27;45459;-85
2023/04/29 10:30:49;;;;;;;;;26.00;22.67;;;;;-147.47;100.00;64613.53;5050584;28;45534;-84
2023/04/29 10:33:18;;;;;;;;;38.67;30.67;;;;;-147.47;100.00;64613.53;5050473;28;45553;-86
2023/04/29 10:35:43;;;;;;;;;41.67;36.33;;;;;-147.47;100.00;64613.53;5039859;28;45585;-83
2023/04/29 10:38:23;;;;;;;;;31.33;26.67;;;;;-147.47;100.00;64613.53;5029584;28;45467;-86
2023/04/29 10:40:53;;;;;;;;;24.00;20.33;;;;;-147.47;100.00;64613.53;5044007;28;47321;-86
2023/04/29 10:43:23;;;;;;;;;22.33;19.67;;;;;-147.47;100.00;64613.53;5042290;28;47592;-85
2023/04/29 10:45:49;;;;;;;;;20.67;19.67;;;;;-147.47;100.00;64613.53;5043730;28;45760;-87
2023/04/29 10:48:17;;;;;;;;;24.33;20.00;;;;;-147.47;100.00;64613.53;5041104;28;45700;-86
2023/04/29 10:50:45;;;;;;;;;18.33;18.33;;;;;-147.47;100.00;64613.53;5060402;28;45721;-84
2023/04/29 10:53:13;;;;;;;;;28.67;25.00;;;;;-147.47;100.00;64613.53;5059996;28;46280;-83
2023/04/29 10:55:39;;;;;;;;;61.00;47.33;;;;;-147.47;100.00;64613.53;5067985;28;45405;-84
2023/04/29 10:58:34;;;;;;;;;23.33;20.33;;;;;-147.47;100.00;64613.53;5046255;28;45470;-84
2023/04/29 11:01:00;;;;;;;;;21.00;18.33;;;;;-147.47;100.00;64613.53;5060616;28;45520;-83
2023/04/29 11:03:45;;;;;;;;;45.67;35.33;;;;;-147.47;100.00;64613.53;5061707;28;45415;-83
2023/04/29 11:06:11;;;;;;;;;18.33;15.67;;;;;-147.47;100.00;64613.53;5054893;28;45857;-83
2023/04/29 11:08:38;;;;;;;;;17.67;16.67;;;;;-147.47;100.00;64613.53;5060525;28;45563;-83
2023/04/29 11:11:05;;;;;;;;;19.33;19.33;;;;;-147.47;100.00;64613.53;5082234;28;45874;-85
2023/04/29 11:13:38;;;;;;;;;19.00;16.67;;;;;-147.47;100.00;64613.53;5075143;28;45731;-86
2023/04/29 11:16:04;;;;;;;;;18.33;18.33;;;;;-147.47;100.00;64613.53;5063235;28;45593;-83
2023/04/29 11:18:30;;;;;;;;;19.33;19.00;;;;;-147.47;100.00;64613.53;5054479;28;45626;-84
2023/04/29 11:21:04;;;;;;;;;33.67;26.00;;;;;-147.47;100.00;64613.53;5037906;28;46535;-81
2023/04/29 11:23:33;;;;;;;;;35.67;32.33;;;;;-147.47;100.00;64613.53;5059771;28;45432;-82
2023/04/29 11:25:58;;;;;;;;;20.67;19.33;;;;;-147.47;100.00;64613.53;5053947;28;45870;-81
2023/04/29 11:28:26;;;;;;;;;20.33;19.33;;;;;-147.47;100.00;64613.53;5027986;28;45500;-82
2023/04/29 11:30:52;;;;;;;;;32.33;28.67;;;;;-147.47;100.00;64613.53;5030912;28;45877;-81
2023/04/29 11:33:21;;;;;;;;;31.00;26.67;;;;;-147.47;100.00;64613.53;5030656;28;45621;-82
2023/04/29 11:35:47;;;;;;;;;37.33;32.00;;;;;-147.47;100.00;64613.53;5048715;28;46080;-82
2023/04/29 11:38:13;;;;;;;;;32.00;29.33;;;;;-147.47;100.00;64613.53;5055048;28;45848;-83
2023/04/29 11:40:48;;;;;;;;;22.67;21.33;;;;;-147.47;100.00;64613.53;5056471;28;45617;-82
2023/04/29 11:43:18;;;;;;;;;18.00;14.67;;;;;-147.47;100.00;64613.53;5056353;28;47041;-82
2023/04/29 11:45:47;;;;;;;;;21.00;17.67;;;;;-147.47;100.00;64613.53;5035758;28;45588;-82
2023/04/29 11:48:19;;;;;;;;;19.00;15.67;;;;;-147.47;100.00;64613.53;5048183;28;45641;-83
2023/04/29 11:50:47;;;;;;;;;21.67;20.67;;;;;-147.47;100.00;64613.53;5055314;28;45404;-81
2023/04/29 11:53:13;;;;;;;;;25.67;17.67;;;;;-147.47;100.00;64613.53;5052992;28;45945;-81
2023/04/29 11:55:42;;;;;;;;;13.33;11.00;;;;;-147.47;100.00;64613.53;5053256;28;45454;-80
2023/04/29 11:58:07;;;;;;;;;17.33;16.00;;;;;-147.47;100.00;64613.53;5026520;28;44900;-80
2023/04/29 12:00:33;;;;;;;;;21.00;18.67;;;;;-147.47;100.00;64613.53;5060538;28;45548;-82
2023/04/29 12:02:59;;;;;;;;;24.00;20.67;;;;;-147.47;100.00;64613.53;5041793;28;47093;-83
2023/04/29 12:05:25;;;;;;;;;22.00;22.00;;;;;-147.47;100.00;64613.53;5056657;28;45618;-82
2023/04/29 12:07:50;;;;;;;;;25.67;20.33;;;;;-147.47;100.00;64613.53;5033724;28;45913;-83
2023/04/29 12:10:17;;;;;;;;;24.33;21.00;;;;;-147.47;100.00;64613.53;5028474;28;46024;-80
2023/04/29 12:12:44;;;;;;;;;16.33;13.67;;;;;-147.47;100.00;64613.53;5048355;28;45461;-82
2023/04/29 12:15:11;;;;;;;;;17.67;17.67;;;;;-147.47;100.00;64613.53;5046277;28;45978;-83
2023/04/29 12:17:38;;;;;;;;;21.00;15.67;;;;;-147.47;100.00;64613.53;5029656;28;45937;-82
2023/04/29 12:20:05;;;;;;;;;18.00;17.00;;;;;-147.47;100.00;64613.53;5051079;28;45505;-84
2023/04/29 12:22:33;;;;;;;;;33.00;23.33;;;;;-147.47;100.00;64613.53;5039501;28;47559;-84
2023/04/29 12:24:58;;;;;;;;;28.00;21.67;;;;;-147.47;100.00;64613.53;5056379;28;45455;-82
2023/04/29 12:27:25;;;;;;;;;30.00;22.00;;;;;-147.47;100.00;64613.53;5052754;28;45986;-82
2023/04/29 12:29:51;;;;;;;;;29.33;21.00;;;;;-147.47;100.00;64613.53;5039947;28;45828;-83